Time;durP1;ratioP1;P1;durP2;ratioP2;P2;SDS_P1;SDS_P2;PMS_P1;PMS_P2;Temp;Humidity;BMP_temperature;BMP_pressure;BME280_temperature;BME280_humidity;BME280_pressure;Samples;Min_cycle;Max_cycle;Signal;HPM_P1;HPM_P2
2022/08/05 00:00:17;;;;;;;8.02;7.25;;;;;;;;;;2088010;28;20050;-78
2022/08/05 00:01:36;;;;;;;7.20;6.70;;;;;;;;;;2088939;28;20033;-79
2022/08/05 00:02:54;;;;;;;7.15;6.45;;;;;;;;;;2087814;28;20040;-78
2022/08/05 00:04:13;;;;;;;7.88;7.18;;;;;;;;;;2084665;28;20033;-78
2022/08/05 00:05:32;;;;;;;11.18;7.93;;;;;;;;;;2084325;28;20029;-79
2022/08/05 00:06:51;;;;;;;9.05;7.88;;;;;;;;;;2085675;28;20405;-79
2022/08/05 00:08:10;;;;;;;8.35;7.60;;;;;;;;;;2086629;28;20029;-78
2022/08/05 00:09:29;;;;;;;9.13;8.23;;;;;;;;;;2088433;28;20396;-79
2022/08/05 00:10:48;;;;;;;8.35;7.45;;;;;;;;;;2087463;28;20707;-80
2022/08/05 00:12:07;;;;;;;9.13;8.20;;;;;;;;;;2088795;28;20124;-78
2022/08/05 00:13:27;;;;;;;8.43;7.72;;;;;;;;;;2087573;28;20037;-79
2022/08/05 00:14:46;;;;;;;8.65;7.70;;;;;;;;;;2083255;28;20159;-78
2022/08/05 00:16:05;;;;;;;8.52;7.75;;;;;;;;;;2087365;28;20032;-78
2022/08/05 00:17:24;;;;;;;8.70;7.90;;;;;;;;;;2085813;28;20042;-79
2022/08/05 00:18:45;;;;;;;8.82;8.13;;;;;;;;;;2081074;28;20041;-78
2022/08/05 00:20:04;;;;;;;9.23;7.80;;;;;;;;;;2089614;28;20035;-79
2022/08/05 00:21:23;;;;;;;8.32;7.53;;;;;;;;;;2086698;28;20024;-78
2022/08/05 00:22:43;;;;;;;8.57;7.80;;;;;;;;;;2087909;28;20037;-79
2022/08/05 00:24:02;;;;;;;8.77;7.65;;;;;;;;;;2089073;28;20025;-78
2022/08/05 00:25:21;;;;;;;9.30;8.30;;;;;;;;;;2086862;28;20041;-78
2022/08/05 00:26:40;;;;;;;9.18;8.48;;;;;;;;;;2085210;28;20037;-79
2022/08/05 00:27:59;;;;;;;8.90;8.23;;;;;;;;;;2085815;28;20033;-80
2022/08/05 00:29:19;;;;;;;9.15;8.25;;;;;;;;;;2086200;28;20111;-78
2022/08/05 00:30:38;;;;;;;9.27;8.57;;;;;;;;;;2087703;28;20033;-79
2022/08/05 00:31:57;;;;;;;7.15;6.63;;;;;;;;;;2088512;28;20448;-79
2022/08/05 00:33:15;;;;;;;7.78;6.97;;;;;;;;;;2083854;28;20072;-79
2022/08/05 00:34:34;;;;;;;9.15;6.72;;;;;;;;;;2085592;28;20032;-79
2022/08/05 00:35:53;;;;;;;10.23;8.20;;;;;;;;;;2085557;28;20100;-78
2022/08/05 00:37:12;;;;;;;8.15;7.22;;;;;;;;;;2085495;28;20033;-79
2022/08/05 00:38:30;;;;;;;10.77;7.68;;;;;;;;;;2087954;28;20033;-78
2022/08/05 00:39:49;;;;;;;11.52;8.90;;;;;;;;;;2089348;28;20819;-79
2022/08/05 00:41:08;;;;;;;9.52;7.53;;;;;;;;;;2087531;28;20029;-78
2022/08/05 00:42:32;;;;;;;8.93;8.07;;;;;;;;;;2089104;28;20025;-79
2022/08/05 00:43:50;;;;;;;8.20;7.40;;;;;;;;;;2087136;28;21636;-78
2022/08/05 00:45:09;;;;;;;8.05;7.38;;;;;;;;;;2087260;28;20454;-78
2022/08/05 00:46:28;;;;;;;8.50;7.72;;;;;;;;;;2088955;28;20033;-78
2022/08/05 00:47:47;;;;;;;7.82;7.20;;;;;;;;;;2085024;28;20029;-78
2022/08/05 00:49:06;;;;;;;8.63;7.85;;;;;;;;;;2086071;28;20120;-79
2022/08/05 00:50:25;;;;;;;7.93;7.32;;;;;;;;;;2086776;28;20032;-79
2022/08/05 00:51:45;;;;;;;10.95;7.00;;;;;;;;;;2088437;28;20060;-79
2022/08/05 00:53:04;;;;;;;9.07;7.43;;;;;;;;;;2084784;28;20041;-80
2022/08/05 00:54:22;;;;;;;10.40;8.07;;;;;;;;;;2087880;28;20037;-79
2022/08/05 00:55:41;;;;;;;9.45;8.52;;;;;;;;;;2081728;28;20020;-80
2022/08/05 00:57:00;;;;;;;11.77;9.57;;;;;;;;;;2083804;28;20025;-79
2022/08/05 00:58:19;;;;;;;11.82;8.85;;;;;;;;;;2087652;28;20025;-79
2022/08/05 00:59:38;;;;;;;12.02;8.02;;;;;;;;;;2086259;28;20059;-79
2022/08/05 01:00:56;;;;;;;7.55;7.05;;;;;;;;;;2087053;28;20037;-79
2022/08/05 01:02:15;;;;;;;9.30;8.30;;;;;;;;;;2085923;28;20029;-79
2022/08/05 01:03:35;;;;;;;10.05;7.57;;;;;;;;;;2089101;28;20033;-80
2022/08/05 01:04:54;;;;;;;8.57;7.82;;;;;;;;;;2087218;28;20530;-80
2022/08/05 01:06:12;;;;;;;11.55;8.38;;;;;;;;;;2087591;28;20032;-79
2022/08/05 01:07:31;;;;;;;9.10;8.20;;;;;;;;;;2085762;28;20107;-79
2022/08/05 01:08:50;;;;;;;9.52;8.70;;;;;;;;;;2085070;28;20029;-79
2022/08/05 01:10:12;;;;;;;10.70;8.30;;;;;;;;;;2084701;28;20025;-79
2022/08/05 01:11:33;;;;;;;9.50;8.43;;;;;;;;;;2084564;28;20051;-79
2022/08/05 01:12:54;;;;;;;8.38;7.78;;;;;;;;;;2082707;28;20049;-80
2022/08/05 01:14:13;;;;;;;12.00;8.02;;;;;;;;;;2082708;28;20056;-80
2022/08/05 01:15:34;;;;;;;8.63;7.90;;;;;;;;;;2086068;28;20021;-79
2022/08/05 01:17:02;;;;;;;8.95;7.72;;;;;;;;;;2087897;28;20856;-80
2022/08/05 01:18:25;;;;;;;9.32;8.60;;;;;;;;;;2089430;28;20115;-80
2022/08/05 01:19:52;;;;;;;12.85;8.05;;;;;;;;;;2088083;28;20115;-79
2022/08/05 01:21:29;;;;;;;9.80;8.32;;;;;;;;;;2086546;28;20490;-79
2022/08/05 01:23:06;;;;;;;10.23;9.18;;;;;;;;;;2094408;28;20036;-80
2022/08/05 01:24:35;;;;;;;9.85;8.60;;;;;;;;;;2086942;28;20037;-79
2022/08/05 01:26:11;;;;;;;9.65;8.40;;;;;;;;;;2087340;28;20053;-79
2022/08/05 01:27:36;;;;;;;11.02;8.82;;;;;;;;;;2085885;28;20113;-79
2022/08/05 01:28:57;;;;;;;10.93;8.43;;;;;;;;;;2086821;28;20033;-79
2022/08/05 01:30:16;;;;;;;8.98;7.97;;;;;;;;;;2095694;28;20032;-80
2022/08/05 01:31:42;;;;;;;9.75;8.40;;;;;;;;;;2089178;28;20108;-80
2022/08/05 01:33:06;;;;;;;10.50;8.80;;;;;;;;;;2086091;28;20148;-80
2022/08/05 01:34:26;;;;;;;10.73;9.27;;;;;;;;;;2086691;28;20040;-79
2022/08/05 01:35:46;;;;;;;10.57;9.35;;;;;;;;;;2085009;28;20498;-80
2022/08/05 01:37:25;;;;;;;12.38;9.07;;;;;;;;;;2078614;28;20413;-79
2022/08/05 01:38:45;;;;;;;10.35;8.95;;;;;;;;;;2080377;28;20397;-80
2022/08/05 01:40:06;;;;;;;9.85;8.93;;;;;;;;;;2088842;28;20037;-80
2022/08/05 01:41:26;;;;;;;13.68;8.88;;;;;;;;;;2086862;28;20029;-80
2022/08/05 01:42:45;;;;;;;12.07;8.88;;;;;;;;;;2087076;28;20530;-80
2022/08/05 01:44:06;;;;;;;9.23;8.43;;;;;;;;;;2087897;28;20494;-80
2022/08/05 01:45:26;;;;;;;9.63;8.65;;;;;;;;;;2083918;28;20037;-79
2022/08/05 01:46:45;;;;;;;10.32;9.10;;;;;;;;;;2085282;28;20037;-79
2022/08/05 01:48:05;;;;;;;10.10;9.10;;;;;;;;;;2087725;28;20498;-79
2022/08/05 01:49:25;;;;;;;9.18;8.27;;;;;;;;;;2086441;28;20401;-79
2022/08/05 01:50:45;;;;;;;9.07;8.15;;;;;;;;;;2086505;28;20017;-79
2022/08/05 01:52:05;;;;;;;9.52;8.30;;;;;;;;;;2087769;28;20033;-79
2022/08/05 01:53:25;;;;;;;9.23;8.32;;;;;;;;;;2086589;28;20065;-79
2022/08/05 01:54:47;;;;;;;9.45;8.55;;;;;;;;;;2084237;28;20025;-79
2022/08/05 01:56:06;;;;;;;10.50;9.40;;;;;;;;;;2086808;28;20021;-80
2022/08/05 01:57:30;;;;;;;9.85;8.95;;;;;;;;;;2086044;28;20021;-80
2022/08/05 01:58:51;;;;;;;12.23;8.65;;;;;;;;;;2085927;28;20028;-79
2022/08/05 02:00:11;;;;;;;10.07;8.70;;;;;;;;;;2084167;28;20036;-80
2022/08/05 02:01:31;;;;;;;9.32;8.48;;;;;;;;;;2085092;28;20025;-79
2022/08/05 02:03:19;;;;;;;11.82;9.25;;;;;;;;;;2087459;28;20025;-79
2022/08/05 02:04:39;;;;;;;10.02;9.13;;;;;;;;;;2080828;28;20029;-78
2022/08/05 02:05:59;;;;;;;9.75;8.80;;;;;;;;;;2092759;28;20404;-80
2022/08/05 02:07:18;;;;;;;11.23;9.68;;;;;;;;;;2089154;28;20024;-79
2022/08/05 02:08:37;;;;;;;10.70;8.70;;;;;;;;;;2088637;28;20024;-79
2022/08/05 02:09:57;;;;;;;11.27;10.18;;;;;;;;;;2085184;28;20033;-79
2022/08/05 02:11:16;;;;;;;11.68;8.90;;;;;;;;;;2085816;28;20025;-79
2022/08/05 02:12:44;;;;;;;10.35;9.38;;;;;;;;;;2085360;28;20025;-78
2022/08/05 02:14:33;;;;;;;10.25;9.40;;;;;;;;;;2092408;28;20028;-79
2022/08/05 02:16:00;;;;;;;12.32;9.52;;;;;;;;;;2079638;28;20029;-79
2022/08/05 02:17:30;;;;;;;11.75;9.73;;;;;;;;;;2084121;28;20016;-79
2022/08/05 02:18:55;;;;;;;13.18;10.13;;;;;;;;;;2084986;28;20489;-79
2022/08/05 02:20:17;;;;;;;11.63;10.43;;;;;;;;;;2087535;28;20073;-79
2022/08/05 02:21:39;;;;;;;10.02;8.98;;;;;;;;;;2084911;28;20033;-79
2022/08/05 02:23:01;;;;;;;10.77;9.65;;;;;;;;;;2086697;28;20033;-79
2022/08/05 02:24:24;;;;;;;11.77;10.40;;;;;;;;;;2086130;28;20490;-79
2022/08/05 02:25:43;;;;;;;10.50;9.57;;;;;;;;;;2084973;28;20048;-79
2022/08/05 02:27:03;;;;;;;10.02;9.13;;;;;;;;;;2082061;28;20048;-79
2022/08/05 02:28:25;;;;;;;10.13;9.13;;;;;;;;;;2088250;28;20107;-79
2022/08/05 02:29:45;;;;;;;11.35;10.27;;;;;;;;;;2086542;28;20025;-79
2022/08/05 02:31:14;;;;;;;11.32;9.77;;;;;;;;;;2085837;28;20045;-79
2022/08/05 02:32:33;;;;;;;21.40;9.70;;;;;;;;;;2088214;28;20036;-79
2022/08/05 02:33:57;;;;;;;10.40;9.35;;;;;;;;;;2088010;28;20025;-79
2022/08/05 02:35:18;;;;;;;9.98;9.02;;;;;;;;;;2085042;28;20021;-79
2022/08/05 02:36:44;;;;;;;10.27;9.07;;;;;;;;;;2085724;28;20033;-79
2022/08/05 02:38:03;;;;;;;9.80;8.90;;;;;;;;;;2087355;28;20032;-79
2022/08/05 02:39:23;;;;;;;10.48;8.75;;;;;;;;;;2082314;28;20056;-79
2022/08/05 02:40:43;;;;;;;10.55;9.57;;;;;;;;;;2093453;28;20402;-79
2022/08/05 02:42:02;;;;;;;9.98;9.13;;;;;;;;;;2089480;28;20029;-79
2022/08/05 02:43:23;;;;;;;11.07;9.98;;;;;;;;;;2086645;28;20103;-79
2022/08/05 02:44:42;;;;;;;11.10;9.55;;;;;;;;;;2087561;28;20120;-79
2022/08/05 02:46:02;;;;;;;9.77;8.98;;;;;;;;;;2086144;28;20191;-79
2022/08/05 02:47:21;;;;;;;10.55;9.55;;;;;;;;;;2083557;28;20064;-79
2022/08/05 02:48:40;;;;;;;9.82;8.70;;;;;;;;;;2087283;28;20025;-79
2022/08/05 02:49:59;;;;;;;9.48;8.68;;;;;;;;;;2087979;28;20028;-79
2022/08/05 02:51:18;;;;;;;8.73;8.13;;;;;;;;;;2084386;28;20017;-80
2022/08/05 02:52:37;;;;;;;9.75;8.75;;;;;;;;;;2085398;28;20032;-80
2022/08/05 02:53:56;;;;;;;10.63;9.20;;;;;;;;;;2088048;28;20037;-80
2022/08/05 02:55:15;;;;;;;8.65;8.05;;;;;;;;;;2085005;28;20029;-79
2022/08/05 02:56:34;;;;;;;9.45;8.68;;;;;;;;;;2085434;28;20144;-79
2022/08/05 02:57:55;;;;;;;9.98;9.00;;;;;;;;;;2088651;28;20036;-80
2022/08/05 02:59:15;;;;;;;11.43;9.10;;;;;;;;;;2085202;28;20068;-79
2022/08/05 03:00:35;;;;;;;10.00;8.98;;;;;;;;;;2081328;28;20032;-79
2022/08/05 03:01:59;;;;;;;10.35;8.88;;;;;;;;;;2088491;28;20032;-79
2022/08/05 03:03:19;;;;;;;10.65;9.63;;;;;;;;;;2085892;28;20029;-79
2022/08/05 03:04:38;;;;;;;10.90;9.82;;;;;;;;;;2096335;28;20108;-79
2022/08/05 03:05:58;;;;;;;12.00;10.30;;;;;;;;;;2089514;28;20064;-80
2022/08/05 03:07:17;;;;;;;10.40;9.63;;;;;;;;;;2084824;28;20064;-80
2022/08/05 03:08:37;;;;;;;11.02;9.90;;;;;;;;;;2088354;28;20013;-79
2022/08/05 03:09:56;;;;;;;11.23;10.23;;;;;;;;;;2089639;28;20029;-79
2022/08/05 03:11:23;;;;;;;16.15;9.50;;;;;;;;;;2086526;28;20025;-79
2022/08/05 03:12:41;;;;;;;10.40;9.35;;;;;;;;;;2087959;28;20032;-80
2022/08/05 03:14:00;;;;;;;10.55;9.43;;;;;;;;;;2087533;28;20104;-79
2022/08/05 03:15:20;;;;;;;10.45;9.55;;;;;;;;;;2083363;28;20394;-80
2022/08/05 03:16:40;;;;;;;10.82;9.95;;;;;;;;;;2085561;28;20076;-80
2022/08/05 03:17:58;;;;;;;10.80;9.73;;;;;;;;;;2085989;28;20045;-80
2022/08/05 03:19:17;;;;;;;10.15;9.30;;;;;;;;;;2088454;28;20417;-80
2022/08/05 03:20:36;;;;;;;16.08;9.80;;;;;;;;;;2086989;28;20494;-80
2022/08/05 03:21:56;;;;;;;10.82;9.70;;;;;;;;;;2090429;28;20040;-80
2022/08/05 03:23:15;;;;;;;11.88;10.32;;;;;;;;;;2087743;28;20033;-80
2022/08/05 03:24:34;;;;;;;10.32;9.55;;;;;;;;;;2089105;28;20028;-80
2022/08/05 03:25:53;;;;;;;10.18;9.35;;;;;;;;;;2088290;28;20053;-79
2022/08/05 03:27:12;;;;;;;11.43;10.45;;;;;;;;;;2087541;28;20072;-79
2022/08/05 03:28:31;;;;;;;9.95;9.18;;;;;;;;;;2090767;28;20080;-79
2022/08/05 03:29:50;;;;;;;10.25;9.25;;;;;;;;;;2087644;28;20021;-80
2022/08/05 03:31:09;;;;;;;10.77;9.68;;;;;;;;;;2087342;28;20029;-80
2022/08/05 03:32:28;;;;;;;10.52;9.65;;;;;;;;;;2089644;28;20431;-80
2022/08/05 03:33:48;;;;;;;11.98;9.77;;;;;;;;;;2088316;28;20029;-79
2022/08/05 03:35:07;;;;;;;10.20;9.20;;;;;;;;;;2086615;28;20575;-80
2022/08/05 03:36:26;;;;;;;10.05;8.93;;;;;;;;;;2089416;28;20113;-80
2022/08/05 03:37:45;;;;;;;9.57;8.63;;;;;;;;;;2088725;28;20509;-79
2022/08/05 03:39:05;;;;;;;9.60;8.85;;;;;;;;;;2084368;28;20045;-80
2022/08/05 03:40:24;;;;;;;11.43;10.48;;;;;;;;;;2088460;28;20025;-80
2022/08/05 03:41:43;;;;;;;10.70;9.68;;;;;;;;;;2088552;28;20064;-79
2022/08/05 03:43:02;;;;;;;10.75;9.50;;;;;;;;;;2088395;28;21767;-79
2022/08/05 03:44:21;;;;;;;10.77;9.82;;;;;;;;;;2089662;28;20053;-80
2022/08/05 03:45:40;;;;;;;11.43;10.20;;;;;;;;;;2086398;28;20514;-79
2022/08/05 03:46:58;;;;;;;10.30;9.30;;;;;;;;;;2083828;28;20073;-80
2022/08/05 03:48:18;;;;;;;10.00;9.20;;;;;;;;;;2089497;28;20502;-79
2022/08/05 03:49:37;;;;;;;9.63;8.85;;;;;;;;;;2086382;28;20467;-79
2022/08/05 03:51:14;;;;;;;9.60;8.80;;;;;;;;;;2087294;28;20025;-79
2022/08/05 03:52:36;;;;;;;10.93;9.65;;;;;;;;;;2089407;28;20033;-80
2022/08/05 03:54:11;;;;;;;10.30;9.30;;;;;;;;;;2088796;28;20502;-78
2022/08/05 03:55:36;;;;;;;10.10;9.30;;;;;;;;;;2086717;28;20533;-78
2022/08/05 03:56:55;;;;;;;10.70;9.73;;;;;;;;;;2092218;28;20513;-78
2022/08/05 03:58:16;;;;;;;10.23;9.32;;;;;;;;;;2091999;28;20030;-78
2022/08/05 03:59:45;;;;;;;10.07;9.18;;;;;;;;;;2086749;28;20454;-78
2022/08/05 04:01:04;;;;;;;11.30;9.98;;;;;;;;;;2086777;28;20739;-78
2022/08/05 04:02:25;;;;;;;9.65;8.95;;;;;;;;;;2089612;28;20478;-79
2022/08/05 04:03:46;;;;;;;9.07;8.27;;;;;;;;;;2088939;28;20029;-79
2022/08/05 04:05:07;;;;;;;10.20;9.27;;;;;;;;;;2086707;28;20041;-79
2022/08/05 04:06:26;;;;;;;11.35;9.88;;;;;;;;;;2087854;28;20042;-79
2022/08/05 04:07:45;;;;;;;12.80;9.80;;;;;;;;;;2089470;28;20108;-78
2022/08/05 04:09:07;;;;;;;10.38;9.45;;;;;;;;;;2086499;28;20033;-79
2022/08/05 04:10:27;;;;;;;9.57;8.82;;;;;;;;;;2092409;28;20021;-78
2022/08/05 04:11:45;;;;;;;10.38;9.38;;;;;;;;;;2091788;28;20029;-79
2022/08/05 04:13:05;;;;;;;10.77;9.70;;;;;;;;;;2086874;28;20030;-78
2022/08/05 04:14:27;;;;;;;10.70;9.45;;;;;;;;;;2089350;28;20021;-79
2022/08/05 04:15:46;;;;;;;12.15;9.77;;;;;;;;;;2087096;28;20025;-78
2022/08/05 04:17:07;;;;;;;10.63;9.57;;;;;;;;;;2086198;28;20030;-78
2022/08/05 04:18:26;;;;;;;10.73;9.73;;;;;;;;;;2088475;28;20029;-78
2022/08/05 04:19:45;;;;;;;12.32;9.32;;;;;;;;;;2083737;28;20439;-78
2022/08/05 04:21:05;;;;;;;11.23;9.95;;;;;;;;;;2081976;28;20025;-79
2022/08/05 04:22:24;;;;;;;10.10;9.25;;;;;;;;;;2089162;28;20033;-78
2022/08/05 04:23:43;;;;;;;10.00;9.30;;;;;;;;;;2085303;28;20037;-78
2022/08/05 04:25:02;;;;;;;10.85;9.88;;;;;;;;;;2086114;28;20029;-79
2022/08/05 04:26:20;;;;;;;10.80;9.70;;;;;;;;;;2083354;28;20048;-78
2022/08/05 04:27:39;;;;;;;11.25;10.05;;;;;;;;;;2081962;28;20029;-79
2022/08/05 04:28:58;;;;;;;10.63;9.82;;;;;;;;;;2092809;28;20036;-78
2022/08/05 04:30:17;;;;;;;14.38;10.75;;;;;;;;;;2086252;28;20041;-78
2022/08/05 04:31:36;;;;;;;11.75;10.65;;;;;;;;;;2083930;28;20096;-79
2022/08/05 04:32:55;;;;;;;12.07;10.55;;;;;;;;;;2085281;28;20030;-79
2022/08/05 04:34:14;;;;;;;12.43;11.15;;;;;;;;;;2086206;28;20057;-79
2022/08/05 04:35:33;;;;;;;11.55;10.15;;;;;;;;;;2086503;28;20029;-79
2022/08/05 04:36:52;;;;;;;12.23;10.80;;;;;;;;;;2083540;28;20033;-79
2022/08/05 04:38:11;;;;;;;14.30;11.77;;;;;;;;;;2088674;28;20049;-80
2022/08/05 04:39:30;;;;;;;13.48;12.00;;;;;;;;;;2086110;28;20021;-80
2022/08/05 04:40:50;;;;;;;12.10;11.02;;;;;;;;;;2088667;28;20036;-80
2022/08/05 04:42:08;;;;;;;11.63;10.63;;;;;;;;;;2087736;28;20037;-79
2022/08/05 04:43:27;;;;;;;14.95;11.85;;;;;;;;;;2084582;28;20025;-80
2022/08/05 04:44:46;;;;;;;11.82;10.77;;;;;;;;;;2089147;28;20029;-80
2022/08/05 04:46:06;;;;;;;13.85;12.38;;;;;;;;;;2086793;28;20032;-80
2022/08/05 04:47:25;;;;;;;13.10;11.80;;;;;;;;;;2084668;28;20049;-80
2022/08/05 04:48:44;;;;;;;11.13;10.05;;;;;;;;;;2078960;28;20415;-80
2022/08/05 04:50:03;;;;;;;13.13;11.93;;;;;;;;;;2083399;28;20037;-78
2022/08/05 04:51:21;;;;;;;13.90;11.65;;;;;;;;;;2086736;28;20112;-78
2022/08/05 04:52:40;;;;;;;13.40;11.45;;;;;;;;;;2087803;28;20061;-78
2022/08/05 04:53:59;;;;;;;12.55;11.57;;;;;;;;;;2089453;28;20541;-81
2022/08/05 04:55:18;;;;;;;12.82;11.63;;;;;;;;;;2087643;28;20036;-82
2022/08/05 04:56:37;;;;;;;13.38;12.10;;;;;;;;;;2087816;28;20033;-80
2022/08/05 04:57:56;;;;;;;13.40;12.07;;;;;;;;;;2088955;28;20037;-80
2022/08/05 04:59:15;;;;;;;15.30;13.88;;;;;;;;;;2088291;28;20025;-80
2022/08/05 05:00:35;;;;;;;15.82;14.48;;;;;;;;;;2088710;28;20079;-80
2022/08/05 05:01:54;;;;;;;17.63;15.52;;;;;;;;;;2087974;28;20033;-78
2022/08/05 05:03:13;;;;;;;17.20;15.25;;;;;;;;;;2086636;28;20041;-79
2022/08/05 05:04:31;;;;;;;17.13;15.43;;;;;;;;;;2087661;28;20033;-78
2022/08/05 05:05:50;;;;;;;16.23;14.40;;;;;;;;;;2082205;28;20039;-78
2022/08/05 05:07:10;;;;;;;15.55;13.75;;;;;;;;;;2082747;28;20045;-78
2022/08/05 05:08:29;;;;;;;21.83;14.40;;;;;;;;;;2088769;28;20033;-76
2022/08/05 05:09:47;;;;;;;17.52;13.55;;;;;;;;;;2087374;28;20033;-76
2022/08/05 05:11:06;;;;;;;16.48;13.95;;;;;;;;;;2084932;28;20032;-77
2022/08/05 05:12:25;;;;;;;14.70;13.27;;;;;;;;;;2087274;28;20025;-77
2022/08/05 05:13:44;;;;;;;17.73;14.55;;;;;;;;;;2087303;28;20029;-76
2022/08/05 05:15:04;;;;;;;18.65;14.95;;;;;;;;;;2085053;28;20095;-77
2022/08/05 05:16:22;;;;;;;20.10;13.52;;;;;;;;;;2089704;28;20021;-77
2022/08/05 05:17:45;;;;;;;22.52;13.85;;;;;;;;;;2087467;28;20034;-76
2022/08/05 05:19:04;;;;;;;26.63;14.18;;;;;;;;;;2085913;28;20029;-75
2022/08/05 05:20:23;;;;;;;18.45;13.75;;;;;;;;;;2088047;28;20486;-76
2022/08/05 05:21:42;;;;;;;21.92;15.77;;;;;;;;;;2089939;28;20056;-75
2022/08/05 05:23:04;;;;;;;16.52;13.70;;;;;;;;;;2086513;28;20033;-76
2022/08/05 05:24:23;;;;;;;15.88;13.48;;;;;;;;;;2088302;28;20025;-75
2022/08/05 05:25:43;;;;;;;16.83;13.60;;;;;;;;;;2084677;28;20041;-76
2022/08/05 05:27:02;;;;;;;15.73;14.10;;;;;;;;;;2088153;28;20029;-75
2022/08/05 05:28:21;;;;;;;13.80;12.48;;;;;;;;;;2087840;28;20107;-75
2022/08/05 05:29:40;;;;;;;17.45;13.43;;;;;;;;;;2087292;28;20029;-75
2022/08/05 05:30:58;;;;;;;15.15;13.30;;;;;;;;;;2086970;28;20029;-75
2022/08/05 05:32:17;;;;;;;15.48;13.85;;;;;;;;;;2088337;28;20117;-75
2022/08/05 05:33:36;;;;;;;16.10;14.45;;;;;;;;;;2085407;28;20025;-75
2022/08/05 05:34:55;;;;;;;16.20;14.02;;;;;;;;;;2087544;28;20397;-75
2022/08/05 05:36:14;;;;;;;14.80;13.30;;;;;;;;;;2088316;28;20474;-76
2022/08/05 05:37:33;;;;;;;15.13;13.45;;;;;;;;;;2089209;28;20044;-76
2022/08/05 05:38:52;;;;;;;15.25;12.75;;;;;;;;;;2088395;28;20418;-75
2022/08/05 05:40:13;;;;;;;16.35;14.40;;;;;;;;;;2087925;28;20049;-76
2022/08/05 05:41:32;;;;;;;16.77;15.13;;;;;;;;;;2088331;28;20029;-76
2022/08/05 05:42:51;;;;;;;16.25;14.55;;;;;;;;;;2087926;28;20448;-76
2022/08/05 05:44:10;;;;;;;16.38;14.63;;;;;;;;;;2086030;28;20037;-75
2022/08/05 05:45:29;;;;;;;17.95;14.73;;;;;;;;;;2089558;28;20029;-76
2022/08/05 05:46:48;;;;;;;16.08;14.52;;;;;;;;;;2087523;28;20029;-75
2022/08/05 05:48:07;;;;;;;15.32;13.50;;;;;;;;;;2088022;28;20650;-75
2022/08/05 05:49:26;;;;;;;15.50;14.10;;;;;;;;;;2089444;28;20025;-76
2022/08/05 05:50:44;;;;;;;15.32;13.73;;;;;;;;;;2089018;28;20033;-75
2022/08/05 05:52:03;;;;;;;16.23;13.93;;;;;;;;;;2088445;28;20056;-76
2022/08/05 05:53:22;;;;;;;16.60;15.02;;;;;;;;;;2088646;28;20032;-76
2022/08/05 05:54:41;;;;;;;15.90;14.27;;;;;;;;;;2088938;28;20033;-76
2022/08/05 05:56:00;;;;;;;14.88;13.45;;;;;;;;;;2089499;28;20116;-76
2022/08/05 05:57:19;;;;;;;14.70;13.32;;;;;;;;;;2089712;28;20072;-76
2022/08/05 05:58:38;;;;;;;18.05;15.38;;;;;;;;;;2086669;28;20421;-76
2022/08/05 05:59:57;;;;;;;16.42;14.93;;;;;;;;;;2088196;28;20481;-76
2022/08/05 06:01:16;;;;;;;17.73;14.85;;;;;;;;;;2088835;28;20037;-76
2022/08/05 06:02:35;;;;;;;15.98;14.40;;;;;;;;;;2089879;28;20104;-76
2022/08/05 06:03:55;;;;;;;15.35;13.93;;;;;;;;;;2087640;28;20057;-76
2022/08/05 06:05:14;;;;;;;14.07;12.82;;;;;;;;;;2088903;28;20029;-76
2022/08/05 06:06:34;;;;;;;14.05;12.60;;;;;;;;;;2087939;28;20474;-76
2022/08/05 06:07:52;;;;;;;14.65;13.32;;;;;;;;;;2087935;28;20029;-76
2022/08/05 06:09:11;;;;;;;15.38;12.45;;;;;;;;;;2087656;28;20033;-76
2022/08/05 06:10:31;;;;;;;14.10;12.73;;;;;;;;;;2088290;28;20017;-76
2022/08/05 06:11:50;;;;;;;17.60;12.25;;;;;;;;;;2089147;28;20033;-76
2022/08/05 06:13:09;;;;;;;12.88;11.68;;;;;;;;;;2088881;28;20064;-76
2022/08/05 06:14:29;;;;;;;14.82;13.45;;;;;;;;;;2085091;28;20033;-76
2022/08/05 06:15:48;;;;;;;14.20;12.48;;;;;;;;;;2085422;28;20526;-76
2022/08/05 06:17:06;;;;;;;14.23;12.82;;;;;;;;;;2087340;28;20486;-76
2022/08/05 06:18:25;;;;;;;14.32;12.82;;;;;;;;;;2088539;28;20041;-76
2022/08/05 06:19:44;;;;;;;13.30;12.10;;;;;;;;;;2087381;28;20111;-76
2022/08/05 06:21:03;;;;;;;15.90;12.75;;;;;;;;;;2087501;28;20100;-76
2022/08/05 06:22:33;;;;;;;15.40;12.52;;;;;;;;;;2087244;28;20025;-76
2022/08/05 06:23:51;;;;;;;15.38;11.93;;;;;;;;;;2087452;28;20033;-76
2022/08/05 06:25:12;;;;;;;14.85;13.30;;;;;;;;;;2088270;28;20139;-76
2022/08/05 06:26:31;;;;;;;14.35;12.90;;;;;;;;;;2087844;28;20497;-76
2022/08/05 06:27:49;;;;;;;14.38;13.05;;;;;;;;;;2088763;28;20068;-76
2022/08/05 06:29:08;;;;;;;13.13;12.00;;;;;;;;;;2088166;28;20044;-76
2022/08/05 06:30:27;;;;;;;12.85;11.65;;;;;;;;;;2087386;28;20029;-76
2022/08/05 06:31:46;;;;;;;14.25;12.85;;;;;;;;;;2087096;28;20119;-76
2022/08/05 06:33:05;;;;;;;13.70;12.30;;;;;;;;;;2088416;28;20430;-76
2022/08/05 06:34:24;;;;;;;13.98;12.32;;;;;;;;;;2086883;28;20029;-76
2022/08/05 06:35:43;;;;;;;14.00;12.63;;;;;;;;;;2089112;28;20036;-75
2022/08/05 06:37:02;;;;;;;14.13;12.75;;;;;;;;;;2087909;28;20033;-76
2022/08/05 06:38:20;;;;;;;13.85;12.65;;;;;;;;;;2087281;28;20064;-76
2022/08/05 06:39:39;;;;;;;13.93;12.50;;;;;;;;;;2085973;28;20036;-75
2022/08/05 06:40:58;;;;;;;12.02;10.90;;;;;;;;;;2087122;28;20029;-76
2022/08/05 06:42:17;;;;;;;12.82;11.52;;;;;;;;;;2089382;28;20409;-76
2022/08/05 06:43:36;;;;;;;11.20;10.20;;;;;;;;;;2085697;28;20037;-76
2022/08/05 06:44:55;;;;;;;12.50;11.40;;;;;;;;;;2087754;28;20402;-76
2022/08/05 06:46:14;;;;;;;15.10;12.60;;;;;;;;;;2088864;28;20041;-76
2022/08/05 06:47:33;;;;;;;11.70;10.50;;;;;;;;;;2088859;28;20037;-76
2022/08/05 06:48:52;;;;;;;11.98;10.60;;;;;;;;;;2087965;28;20025;-76
2022/08/05 06:50:11;;;;;;;14.07;12.68;;;;;;;;;;2086821;28;20033;-76
2022/08/05 06:51:30;;;;;;;12.02;10.93;;;;;;;;;;2087618;28;20028;-76
2022/08/05 06:52:49;;;;;;;15.07;12.68;;;;;;;;;;2089512;28;20037;-76
2022/08/05 06:54:08;;;;;;;13.43;12.30;;;;;;;;;;2087251;28;20033;-75
2022/08/05 06:55:27;;;;;;;12.90;11.82;;;;;;;;;;2086754;28;20120;-76
2022/08/05 06:56:46;;;;;;;12.27;10.63;;;;;;;;;;2088173;28;20461;-76
2022/08/05 06:58:05;;;;;;;13.50;12.23;;;;;;;;;;2087188;28;20052;-76
2022/08/05 06:59:24;;;;;;;13.50;12.23;;;;;;;;;;2086589;28;20501;-76
2022/08/05 07:00:43;;;;;;;12.68;11.57;;;;;;;;;;2087898;28;20528;-76
2022/08/05 07:02:02;;;;;;;13.13;11.93;;;;;;;;;;2087840;28;20039;-76
2022/08/05 07:03:20;;;;;;;11.63;10.70;;;;;;;;;;2089105;28;20029;-75
2022/08/05 07:04:39;;;;;;;11.88;10.68;;;;;;;;;;2088013;28;20033;-75
2022/08/05 07:06:00;;;;;;;10.98;10.10;;;;;;;;;;2088446;28;20449;-75
2022/08/05 07:07:19;;;;;;;9.90;9.05;;;;;;;;;;2086681;28;20135;-75
2022/08/05 07:08:38;;;;;;;10.48;8.85;;;;;;;;;;2088605;28;20029;-75
2022/08/05 07:09:57;;;;;;;9.10;8.30;;;;;;;;;;2086933;28;20029;-75
2022/08/05 07:11:16;;;;;;;10.73;8.57;;;;;;;;;;2087815;28;20037;-75
2022/08/05 07:17:29;;;;;;;9.23;8.40;;;;;;;;;;2088115;28;20029;-75
2022/08/05 07:18:48;;;;;;;9.52;8.65;;;;;;;;;;2087219;28;20041;-75
2022/08/05 07:20:07;;;;;;;11.25;9.30;;;;;;;;;;2087954;28;20459;-75
2022/08/05 07:21:26;;;;;;;9.65;8.85;;;;;;;;;;2088152;28;20025;-75
2022/08/05 07:22:45;;;;;;;8.95;8.23;;;;;;;;;;2088679;28;20033;-75
2022/08/05 07:24:04;;;;;;;9.45;8.73;;;;;;;;;;2088606;28;20033;-76
2022/08/05 07:25:23;;;;;;;8.48;7.65;;;;;;;;;;2088224;28;20037;-75
2022/08/05 07:26:42;;;;;;;9.80;8.70;;;;;;;;;;2088478;28;20037;-76
2022/08/05 07:28:02;;;;;;;9.30;8.15;;;;;;;;;;2088206;28;20062;-76
2022/08/05 07:29:21;;;;;;;9.15;8.23;;;;;;;;;;2085532;28;20075;-76
2022/08/05 07:30:40;;;;;;;8.45;7.78;;;;;;;;;;2088568;28;20509;-76
2022/08/05 07:31:59;;;;;;;10.30;8.27;;;;;;;;;;2088083;28;20549;-76
2022/08/05 07:33:20;;;;;;;10.40;8.23;;;;;;;;;;2088223;28;20455;-76
2022/08/05 07:34:38;;;;;;;12.20;8.80;;;;;;;;;;2087815;28;20018;-76
2022/08/05 07:35:58;;;;;;;8.57;7.75;;;;;;;;;;2088822;28;20029;-76
2022/08/05 07:37:17;;;;;;;8.77;7.90;;;;;;;;;;2087168;28;20052;-76
2022/08/05 07:38:36;;;;;;;8.45;7.90;;;;;;;;;;2089087;28;20102;-76
2022/08/05 07:39:55;;;;;;;9.40;8.50;;;;;;;;;;2094932;28;20066;-76
2022/08/05 07:41:16;;;;;;;9.48;8.55;;;;;;;;;;2091142;28;20392;-76
2022/08/05 07:42:35;;;;;;;7.93;7.32;;;;;;;;;;2088408;28;20029;-76
2022/08/05 07:43:55;;;;;;;11.82;8.30;;;;;;;;;;2088481;28;20037;-75
2022/08/05 07:45:14;;;;;;;9.38;8.48;;;;;;;;;;2086877;28;20032;-76
2022/08/05 07:46:33;;;;;;;9.00;8.25;;;;;;;;;;2083203;28;20029;-75
2022/08/05 07:47:52;;;;;;;8.80;7.90;;;;;;;;;;2084332;28;20498;-75
2022/08/05 07:49:12;;;;;;;8.60;7.90;;;;;;;;;;2085063;28;20033;-76
2022/08/05 07:50:31;;;;;;;8.85;7.57;;;;;;;;;;2087638;28;20032;-75
2022/08/05 07:51:50;;;;;;;7.97;7.47;;;;;;;;;;2088234;28;20029;-76
2022/08/05 07:53:09;;;;;;;8.70;7.82;;;;;;;;;;2088195;28;20055;-76
2022/08/05 07:54:28;;;;;;;8.25;7.63;;;;;;;;;;2088931;28;20034;-76
2022/08/05 07:55:47;;;;;;;8.18;7.57;;;;;;;;;;2087959;28;20037;-76
2022/08/05 07:57:06;;;;;;;7.35;6.80;;;;;;;;;;2088160;28;20037;-75